Hampden Township, Pennsylvania
Current Conditions -  °F | °C
As of 6:03 PM on Sunday 21 Dec 2014 (Local Time) from KCXY Reporting Station
Clear Clear  
Wind Chill: 27°   Ceiling: Unl
Heat Index: 32°   Visibility: 10mi
Dew Point: 22°   Wind: 5mph
Humidity: 66%   Direction: 30°NNE
Pressure: 30.33"   Gusts: NA
Location:  40.2485°N, 77.0142°W
Report Text: KCXY 212303Z 03004KT 10SM CLR 00/M06 A3033 RMK AO2 T00001056
Loading
Personal Weather Stations






























Interactive Weather Map New forecast layout! Learn more

10-Day Weather Forecast

Advertisements
Track Severe Weather on mobile